Time;durP1;ratioP1;P1;durP2;ratioP2;P2;SDS_P1;SDS_P2;PMS_P1;PMS_P2;Temp;Humidity;BMP_temperature;BMP_pressure;BME280_temperature;BME280_humidity;BME280_pressure;Samples;Min_cycle;Max_cycle;Signal;HPM_P1;HPM_P2
2021/06/03 00:00:30;;;;;;;1.43;1.33;;;22.50;76.20;;;;;;5051957;28;20536;-70
2021/06/03 00:02:56;;;;;;;1.47;1.37;;;22.50;76.20;;;;;;5082435;28;20223;-70
2021/06/03 00:05:26;;;;;;;3.07;1.30;;;22.50;76.20;;;;;;5049439;28;20462;-70
2021/06/03 00:07:53;;;;;;;1.30;1.23;;;22.40;75.80;;;;;;5063615;28;20482;-70
2021/06/03 00:10:27;;;;;;;1.50;1.13;;;22.30;76.20;;;;;;5034548;28;20477;-70
2021/06/03 00:12:54;;;;;;;0.93;0.93;;;22.40;76.60;;;;;;5047287;28;20478;-70
2021/06/03 00:15:19;;;;;;;1.03;1.00;;;22.30;77.20;;;;;;5022542;28;20463;-70
2021/06/03 00:17:45;;;;;;;1.37;1.20;;;22.10;77.60;;;;;;5063187;28;20469;-70
2021/06/03 00:20:15;;;;;;;1.23;1.20;;;22.10;77.30;;;;;;5031307;28;20246;-70
2021/06/03 00:22:41;;;;;;;1.60;1.50;;;22.10;77.30;;;;;;5063268;28;20295;-70
2021/06/03 00:25:08;;;;;;;1.20;1.17;;;22.20;78.30;;;;;;5065582;28;20484;-70
2021/06/03 00:27:34;;;;;;;1.40;1.30;;;22.10;77.20;;;;;;5034899;28;21168;-70
2021/06/03 00:30:00;;;;;;;1.30;1.20;;;22.10;77.60;;;;;;5046015;28;20455;-70
2021/06/03 00:32:25;;;;;;;1.60;1.17;;;22.00;77.70;;;;;;5030467;28;20505;-70
2021/06/03 00:34:51;;;;;;;1.20;1.10;;;22.00;77.70;;;;;;5054716;28;20226;-70
2021/06/03 00:37:17;;;;;;;1.40;1.30;;;21.90;78.20;;;;;;5043925;28;20238;-70
2021/06/03 00:39:43;;;;;;;1.50;1.40;;;21.90;78.40;;;;;;5046062;28;20477;-70
2021/06/03 00:42:09;;;;;;;1.77;1.40;;;21.80;78.80;;;;;;5051624;28;20727;-70
2021/06/03 00:44:34;;;;;;;1.40;1.30;;;21.80;78.60;;;;;;5055514;28;20231;-70
2021/06/03 00:47:00;;;;;;;1.63;1.53;;;21.80;78.60;;;;;;5066056;28;20222;-70
2021/06/03 00:49:26;;;;;;;1.47;1.37;;;21.80;78.60;;;;;;5084781;28;20227;-70
2021/06/03 00:51:51;;;;;;;1.63;1.23;;;21.80;78.60;;;;;;5029416;28;20243;-70
2021/06/03 00:54:17;;;;;;;1.40;1.30;;;21.80;78.70;;;;;;5088609;28;20552;-71
2021/06/03 00:56:43;;;;;;;1.43;1.40;;;21.80;78.90;;;;;;5055179;28;20306;-70
2021/06/03 00:59:11;;;;;;;1.50;1.40;;;21.80;78.80;;;;;;5042705;28;20461;-70
2021/06/03 01:01:37;;;;;;;1.50;1.40;;;21.70;79.30;;;;;;5056762;28;20448;-70
2021/06/03 01:04:04;;;;;;;1.50;1.50;;;21.60;79.80;;;;;;5053569;28;20963;-70
2021/06/03 01:06:31;;;;;;;1.30;1.20;;;21.60;79.80;;;;;;5041802;28;20688;-70
2021/06/03 01:09:06;;;;;;;1.30;1.30;;;21.60;79.80;;;;;;5018331;28;20446;-70
2021/06/03 01:11:38;;;;;;;1.47;1.37;;;21.50;80.20;;;;;;5029604;28;20990;-70
2021/06/03 01:14:20;;;;;;;3.50;1.37;;;21.40;81.00;;;;;;5059938;28;20522;-70
2021/06/03 01:16:48;;;;;;;1.30;1.20;;;21.40;80.80;;;;;;5047339;28;20986;-70
2021/06/03 01:19:24;;;;;;;1.60;1.50;;;21.40;80.60;;;;;;5068787;28;20443;-70
2021/06/03 01:21:56;;;;;;;2.93;2.00;;;21.40;80.80;;;;;;5073395;28;20497;-70
2021/06/03 01:24:41;;;;;;;2.13;1.43;;;21.30;81.10;;;;;;5085101;28;20446;-71
2021/06/03 01:27:18;;;;;;;1.30;1.20;;;21.30;81.00;;;;;;5038209;28;20944;-70
2021/06/03 01:30:02;;;;;;;1.43;1.33;;;21.30;80.90;;;;;;5041077;28;20543;-70
2021/06/03 01:32:32;;;;;;;4.40;1.20;;;21.30;80.70;;;;;;5022921;28;21010;-70
2021/06/03 01:34:58;;;;;;;1.60;1.50;;;21.30;80.70;;;;;;5028649;28;20451;-70
2021/06/03 01:37:25;;;;;;;2.00;1.30;;;21.30;81.00;;;;;;5013821;28;20454;-70
2021/06/03 01:39:51;;;;;;;1.70;1.17;;;21.10;82.00;;;;;;5032094;28;20457;-70
2021/06/03 01:42:18;;;;;;;1.23;1.20;;;21.10;82.00;;;;;;5079523;28;20448;-70
2021/06/03 01:44:46;;;;;;;12.77;1.30;;;21.10;81.80;;;;;;5054410;28;20474;-70
2021/06/03 01:47:14;;;;;;;1.60;1.50;;;21.20;81.70;;;;;;5028854;28;20817;-70
2021/06/03 01:49:41;;;;;;;3.40;2.57;;;21.30;81.90;;;;;;5052624;28;20459;-70
2021/06/03 01:52:09;;;;;;;1.87;1.70;;;21.20;81.70;;;;;;5058247;28;20979;-70
2021/06/03 01:54:36;;;;;;;4.70;1.70;;;21.30;81.80;;;;;;5064602;28;20458;-70
2021/06/03 01:57:06;;;;;;;1.33;1.23;;;21.20;81.80;;;;;;5020094;28;20867;-70
2021/06/03 01:59:35;;;;;;;1.67;1.33;;;21.20;82.50;;;;;;5048856;28;20455;-70
2021/06/03 02:02:01;;;;;;;2.30;1.60;;;21.10;82.40;;;;;;5049349;28;20530;-70
2021/06/03 02:04:28;;;;;;;2.10;1.67;;;21.10;82.40;;;;;;5049656;28;20532;-70
2021/06/03 02:06:54;;;;;;;3.50;1.47;;;21.10;82.50;;;;;;5049207;28;20487;-70
2021/06/03 02:09:22;;;;;;;3.87;1.50;;;21.10;82.40;;;;;;5032662;28;20474;-70
2021/06/03 02:11:50;;;;;;;1.40;1.30;;;21.10;82.40;;;;;;5048949;28;20458;-70
2021/06/03 02:14:26;;;;;;;1.30;1.30;;;21.10;82.30;;;;;;5065103;28;20458;-70
2021/06/03 02:17:03;;;;;;;1.30;1.20;;;21.00;82.00;;;;;;5029406;28;20472;-70
2021/06/03 02:19:45;;;;;;;1.43;1.33;;;21.00;82.30;;;;;;5071662;28;20450;-70
2021/06/03 02:22:11;;;;;;;1.57;1.47;;;21.00;82.60;;;;;;5038990;28;20461;-70
2021/06/03 02:24:38;;;;;;;1.50;1.40;;;21.00;82.40;;;;;;5040652;28;20448;-70
2021/06/03 02:27:05;;;;;;;1.60;1.50;;;21.00;82.50;;;;;;5047800;28;20978;-70
2021/06/03 02:29:32;;;;;;;3.23;1.23;;;21.00;82.50;;;;;;5014708;28;20455;-70
2021/06/03 02:32:22;;;;;;;1.07;1.00;;;20.90;82.50;;;;;;5019293;28;20529;-70
2021/06/03 02:34:53;;;;;;;1.30;1.20;;;20.90;82.60;;;;;;5061541;28;20848;-70
2021/06/03 02:37:20;;;;;;;1.50;1.40;;;20.90;82.80;;;;;;5062307;28;20475;-70
2021/06/03 02:39:49;;;;;;;1.40;1.30;;;20.90;82.60;;;;;;4995834;28;20514;-70
2021/06/03 02:42:16;;;;;;;1.77;1.67;;;20.90;82.70;;;;;;5012393;28;20502;-70
2021/06/03 02:44:44;;;;;;;1.43;1.33;;;20.80;82.40;;;;;;5012845;28;20452;-70
2021/06/03 02:47:11;;;;;;;1.40;1.30;;;20.80;82.60;;;;;;5009722;28;20459;-70
2021/06/03 02:49:37;;;;;;;3.30;1.60;;;20.80;82.60;;;;;;5016713;28;20975;-70
2021/06/03 02:52:07;;;;;;;1.30;1.20;;;20.80;82.80;;;;;;5041553;28;20547;-70
2021/06/03 02:54:34;;;;;;;1.20;1.10;;;20.70;82.80;;;;;;5049736;28;20593;-70
2021/06/03 02:57:00;;;;;;;2.37;1.60;;;20.70;82.80;;;;;;5041334;28;20476;-70
2021/06/03 02:59:28;;;;;;;2.20;1.50;;;20.70;82.90;;;;;;5016007;28;20472;-70
2021/06/03 03:01:55;;;;;;;4.33;1.73;;;20.70;82.90;;;;;;5070835;28;20449;-70
2021/06/03 03:04:21;;;;;;;6.03;1.70;;;20.70;83.10;;;;;;5067051;28;21028;-70
2021/06/03 03:06:47;;;;;;;1.60;1.50;;;20.70;83.20;;;;;;5042083;28;21490;-70
2021/06/03 03:09:13;;;;;;;1.40;1.30;;;20.60;83.60;;;;;;5055509;28;20447;-70
2021/06/03 03:11:39;;;;;;;6.93;2.17;;;20.50;84.00;;;;;;5031338;28;20285;-70
2021/06/03 03:14:07;;;;;;;1.47;1.30;;;20.50;84.30;;;;;;5046623;28;20470;-70
2021/06/03 03:16:35;;;;;;;1.50;1.40;;;20.50;84.10;;;;;;5050515;28;20474;-70
2021/06/03 03:19:03;;;;;;;1.47;1.37;;;20.50;84.30;;;;;;5039498;28;20454;-70
2021/06/03 03:21:31;;;;;;;1.37;1.27;;;20.50;84.30;;;;;;5082957;28;20450;-70
2021/06/03 03:23:57;;;;;;;2.80;1.30;;;20.50;84.40;;;;;;5060307;28;20438;-70
2021/06/03 03:26:23;;;;;;;1.90;1.73;;;20.50;84.40;;;;;;5030135;28;20209;-70
2021/06/03 03:28:49;;;;;;;1.50;1.13;;;20.40;84.50;;;;;;5035947;28;20852;-70
2021/06/03 03:31:15;;;;;;;1.77;1.60;;;20.40;84.80;;;;;;5069808;28;20804;-70
2021/06/03 03:33:43;;;;;;;1.53;1.43;;;20.40;84.80;;;;;;5063518;28;20527;-70
2021/06/03 03:36:10;;;;;;;1.13;1.13;;;20.40;84.90;;;;;;5063163;28;20444;-70
2021/06/03 03:38:46;;;;;;;2.20;1.60;;;20.20;85.50;;;;;;5063266;28;20873;-70
2021/06/03 03:41:11;;;;;;;2.77;1.50;;;20.20;86.10;;;;;;5013654;28;20454;-70
2021/06/03 03:43:38;;;;;;;1.50;1.40;;;20.20;86.30;;;;;;5029345;28;20831;-70
2021/06/03 03:46:04;;;;;;;4.00;2.20;;;20.10;87.30;;;;;;5012088;28;20468;-70
2021/06/03 03:48:30;;;;;;;1.70;1.20;;;20.10;87.50;;;;;;5062826;28;20495;-70
2021/06/03 03:50:58;;;;;;;1.60;1.50;;;20.10;86.90;;;;;;5047467;28;79592;-70
2021/06/03 03:53:30;;;;;;;2.90;1.80;;;20.20;87.00;;;;;;5045441;28;20550;-70
2021/06/03 03:55:56;;;;;;;1.57;1.47;;;20.20;87.00;;;;;;5030158;28;20463;-70
2021/06/03 03:58:23;;;;;;;1.83;1.73;;;20.20;87.10;;;;;;5046933;28;20458;-70
2021/06/03 04:00:49;;;;;;;1.77;1.67;;;20.20;87.20;;;;;;5046746;28;20525;-70
2021/06/03 04:03:21;;;;;;;1.60;1.50;;;20.20;87.30;;;;;;5030575;28;20221;-70
2021/06/03 04:05:52;;;;;;;1.30;1.20;;;20.20;87.20;;;;;;5030197;28;20451;-70
2021/06/03 04:08:21;;;;;;;2.13;1.77;;;20.20;87.50;;;;;;5032054;28;20452;-70
2021/06/03 04:10:46;;;;;;;1.40;1.30;;;20.20;87.60;;;;;;5013811;28;21021;-70
2021/06/03 04:13:14;;;;;;;1.43;1.33;;;20.10;87.80;;;;;;5063453;28;20216;-70
2021/06/03 04:15:46;;;;;;;1.53;1.40;;;20.10;88.00;;;;;;5048164;28;20967;-70
2021/06/03 04:18:15;;;;;;;1.83;1.50;;;20.10;87.90;;;;;;5027333;28;20500;-70
2021/06/03 04:20:42;;;;;;;1.67;1.57;;;20.20;88.20;;;;;;5014073;28;20452;-69
2021/06/03 04:23:08;;;;;;;1.70;1.60;;;20.10;88.30;;;;;;5058531;28;20816;-70
2021/06/03 04:25:36;;;;;;;1.70;1.60;;;20.10;88.70;;;;;;5040233;28;20534;-70
2021/06/03 04:28:02;;;;;;;2.00;1.90;;;20.10;88.80;;;;;;5014720;28;20591;-70
2021/06/03 04:30:28;;;;;;;2.70;1.80;;;20.10;88.50;;;;;;5052415;28;20526;-70
2021/06/03 04:32:54;;;;;;;1.50;1.40;;;20.10;89.40;;;;;;5027094;28;20623;-70
2021/06/03 04:35:21;;;;;;;1.60;1.50;;;20.10;89.60;;;;;;5056519;28;20236;-70
2021/06/03 04:37:48;;;;;;;2.20;2.00;;;20.10;89.90;;;;;;5046516;28;21042;-70
2021/06/03 04:40:16;;;;;;;1.67;1.57;;;20.10;90.00;;;;;;5063205;28;20466;-70
2021/06/03 04:42:43;;;;;;;2.03;1.90;;;20.10;90.20;;;;;;5046217;28;20452;-70
2021/06/03 04:45:12;;;;;;;1.90;1.80;;;20.10;90.40;;;;;;5029672;28;20859;-70
2021/06/03 04:47:38;;;;;;;1.70;1.60;;;20.10;90.30;;;;;;5046682;28;20494;-70
2021/06/03 04:50:04;;;;;;;1.63;1.53;;;20.10;90.30;;;;;;5028000;28;20516;-70
2021/06/03 04:52:31;;;;;;;1.40;1.30;;;20.10;90.20;;;;;;5046122;28;20217;-70
2021/06/03 04:55:06;;;;;;;1.90;1.80;;;20.10;90.40;;;;;;5050610;28;20485;-70
2021/06/03 04:57:33;;;;;;;2.07;1.90;;;20.10;90.20;;;;;;5045217;28;20474;-70
2021/06/03 04:59:58;;;;;;;2.30;1.60;;;20.20;90.20;;;;;;5050375;28;20462;-70
2021/06/03 05:02:24;;;;;;;1.70;1.60;;;20.20;90.20;;;;;;5051859;28;20474;-70
2021/06/03 05:04:51;;;;;;;1.90;1.70;;;20.20;89.90;;;;;;5031233;28;20759;-70
2021/06/03 05:07:17;;;;;;;1.80;1.70;;;20.20;90.40;;;;;;5013571;28;20594;-70
2021/06/03 05:09:43;;;;;;;1.97;1.87;;;20.20;90.40;;;;;;5062617;28;21050;-70
2021/06/03 05:12:09;;;;;;;1.63;1.50;;;20.20;90.60;;;;;;5028941;28;20231;-70
2021/06/03 05:14:35;;;;;;;1.80;1.70;;;20.20;90.40;;;;;;5045814;28;20530;-70
2021/06/03 05:17:02;;;;;;;1.60;1.50;;;20.20;90.50;;;;;;5062506;28;20567;-70
2021/06/03 05:19:28;;;;;;;1.53;1.43;;;20.20;90.70;;;;;;5074944;28;20438;-70
2021/06/03 05:21:54;;;;;;;1.67;1.57;;;20.20;90.70;;;;;;5053422;28;20543;-70
2021/06/03 05:24:20;;;;;;;2.00;1.77;;;20.20;90.40;;;;;;5028911;28;20216;-70
2021/06/03 05:26:46;;;;;;;1.80;1.70;;;20.20;90.80;;;;;;5027954;28;20227;-70
2021/06/03 05:29:16;;;;;;;1.80;1.70;;;20.20;90.90;;;;;;5023617;28;20223;-70
2021/06/03 05:31:43;;;;;;;1.57;1.47;;;20.20;91.00;;;;;;5030503;28;21051;-70
2021/06/03 05:34:09;;;;;;;1.47;1.37;;;20.20;91.00;;;;;;5036450;28;20546;-70
2021/06/03 05:36:34;;;;;;;1.83;1.73;;;20.20;91.20;;;;;;5061866;28;20526;-70
2021/06/03 05:39:00;;;;;;;1.60;1.47;;;20.20;90.90;;;;;;5082002;28;20231;-70
2021/06/03 05:41:26;;;;;;;1.90;1.50;;;20.20;91.10;;;;;;5050573;28;20220;-70
2021/06/03 05:43:52;;;;;;;2.40;1.70;;;20.20;91.00;;;;;;5063082;28;20219;-70
2021/06/03 05:46:17;;;;;;;1.97;1.67;;;20.20;91.10;;;;;;5035165;28;20224;-70
2021/06/03 05:48:43;;;;;;;1.50;1.40;;;20.20;91.30;;;;;;5029261;28;20220;-70
2021/06/03 05:51:09;;;;;;;1.50;1.37;;;20.20;91.40;;;;;;5012399;28;21388;-70
2021/06/03 05:53:34;;;;;;;1.83;1.70;;;20.30;91.30;;;;;;5023922;28;20231;-70
2021/06/03 05:56:00;;;;;;;1.53;1.43;;;20.30;91.20;;;;;;5040313;28;20231;-70
2021/06/03 05:58:26;;;;;;;1.70;1.60;;;20.30;91.40;;;;;;5048791;28;20254;-70
2021/06/03 06:00:51;;;;;;;1.40;1.30;;;20.30;91.40;;;;;;5048547;28;20243;-70
2021/06/03 06:03:19;;;;;;;1.50;1.40;;;20.30;91.30;;;;;;5045700;28;20224;-70
2021/06/03 06:08:28;;;;;;;1.40;1.30;;;20.30;91.30;;;;;;5072259;28;20744;-70
2021/06/03 06:10:54;;;;;;;1.77;1.67;;;20.40;91.70;;;;;;5038726;28;20479;-70
2021/06/03 06:13:21;;;;;;;1.97;1.87;;;20.40;91.70;;;;;;5043722;28;20220;-70
2021/06/03 06:15:47;;;;;;;2.20;2.00;;;20.40;91.80;;;;;;5047527;28;20231;-70
2021/06/03 06:19:04;;;;;;;4.10;2.87;;;20.40;91.80;;;;;;5056223;28;20455;-70
2021/06/03 06:21:29;;;;;;;1.80;1.70;;;20.40;92.10;;;;;;5042162;28;20304;-70
2021/06/03 06:23:55;;;;;;;2.20;2.00;;;20.50;92.10;;;;;;5050947;28;20480;-70
2021/06/03 06:26:37;;;;;;;5.10;1.90;;;20.50;92.30;;;;;;5059494;28;20303;-70
2021/06/03 06:29:03;;;;;;;2.40;1.93;;;20.50;92.10;;;;;;5049402;28;20296;-70
2021/06/03 06:31:28;;;;;;;2.90;1.90;;;20.50;92.40;;;;;;5050914;28;20459;-70
2021/06/03 06:33:55;;;;;;;3.57;1.70;;;20.60;92.50;;;;;;5010108;28;20519;-70
2021/06/03 06:36:20;;;;;;;3.60;2.10;;;20.60;92.50;;;;;;5073405;28;20215;-70
2021/06/03 06:38:46;;;;;;;3.43;2.37;;;20.60;92.80;;;;;;5065034;28;20485;-70
2021/06/03 06:41:12;;;;;;;1.80;1.70;;;20.60;92.70;;;;;;5048737;28;20216;-70
2021/06/03 06:43:38;;;;;;;2.90;2.20;;;20.60;92.40;;;;;;5058150;28;20219;-73
2021/06/03 06:46:06;;;;;;;18.83;2.90;;;20.70;92.60;;;;;;5060934;28;20755;-73
2021/06/03 06:48:33;;;;;;;3.33;2.30;;;20.70;92.70;;;;;;5085135;28;20481;-70
2021/06/03 06:50:59;;;;;;;7.00;2.70;;;20.70;93.20;;;;;;5102322;28;20470;-70
2021/06/03 06:53:28;;;;;;;2.10;1.90;;;20.80;93.00;;;;;;5044220;28;20490;-70
2021/06/03 06:55:55;;;;;;;4.50;4.10;;;20.80;93.20;;;;;;5042696;28;20462;-70
2021/06/03 06:58:21;;;;;;;3.30;2.10;;;20.90;93.20;;;;;;5037631;28;20471;-70
2021/06/03 07:00:49;;;;;;;8.50;2.70;;;20.90;93.00;;;;;;5048022;28;20483;-70
2021/06/03 07:03:15;;;;;;;2.80;2.10;;;20.90;93.10;;;;;;5014744;28;20462;-70
2021/06/03 07:05:42;;;;;;;4.30;2.53;;;21.00;93.30;;;;;;5061785;28;20567;-70
2021/06/03 07:08:08;;;;;;;3.20;2.07;;;21.00;93.60;;;;;;5064417;28;20525;-70
2021/06/03 07:10:34;;;;;;;2.30;2.13;;;21.10;93.60;;;;;;5067985;28;20459;-70
2021/06/03 07:13:01;;;;;;;6.73;2.33;;;21.10;94.00;;;;;;5046503;28;20446;-70
2021/06/03 07:15:27;;;;;;;2.33;2.13;;;21.20;94.10;;;;;;5040047;28;20460;-70
2021/06/03 07:17:54;;;;;;;3.10;2.60;;;21.20;94.50;;;;;;5042087;28;20470;-70
2021/06/03 07:20:20;;;;;;;2.60;2.40;;;21.30;95.10;;;;;;5030916;28;20967;-70
2021/06/03 07:22:49;;;;;;;2.43;2.23;;;21.40;95.20;;;;;;4999831;28;20454;-70
2021/06/03 07:25:16;;;;;;;2.40;2.27;;;21.50;95.10;;;;;;5031193;28;21247;-70
2021/06/03 07:27:43;;;;;;;2.40;2.20;;;21.50;95.20;;;;;;5028049;28;20451;-70
2021/06/03 07:30:11;;;;;;;2.30;2.10;;;21.60;95.10;;;;;;5005192;28;20450;-70
2021/06/03 07:32:37;;;;;;;2.67;2.47;;;21.60;95.30;;;;;;5025688;28;20545;-70
2021/06/03 07:35:09;;;;;;;2.77;2.53;;;21.70;95.30;;;;;;5008768;28;20507;-70
2021/06/03 07:37:48;;;;;;;4.23;3.83;;;21.80;96.20;;;;;;5033295;28;20221;-70
2021/06/03 07:40:21;;;;;;;3.17;2.87;;;21.90;96.40;;;;;;5029667;28;20526;-70
2021/06/03 07:42:47;;;;;;;3.93;3.10;;;22.00;96.00;;;;;;5016411;28;20448;-70
2021/06/03 07:45:15;;;;;;;5.00;3.70;;;22.20;97.30;;;;;;5037884;28;20457;-70
2021/06/03 07:47:41;;;;;;;3.93;3.40;;;22.30;97.00;;;;;;5002507;28;20457;-70
2021/06/03 07:50:10;;;;;;;7.10;4.57;;;22.30;96.80;;;;;;5048089;28;20471;-71
2021/06/03 07:52:37;;;;;;;4.63;4.23;;;22.40;97.00;;;;;;5003180;28;20539;-70
2021/06/03 07:55:05;;;;;;;4.87;3.63;;;22.40;97.00;;;;;;5040070;28;20464;-71
2021/06/03 07:57:31;;;;;;;5.53;3.10;;;22.50;97.10;;;;;;5038730;28;20480;-70
2021/06/03 07:59:56;;;;;;;3.60;3.30;;;22.50;97.40;;;;;;5039294;28;20479;-70
2021/06/03 08:02:22;;;;;;;4.60;3.50;;;22.60;97.10;;;;;;5041278;28;20213;-70
2021/06/03 08:04:48;;;;;;;4.37;3.50;;;22.70;97.20;;;;;;5057430;28;20241;-70
2021/06/03 08:07:13;;;;;;;3.50;3.20;;;22.70;97.20;;;;;;5056757;28;20224;-70
2021/06/03 08:09:41;;;;;;;4.20;3.80;;;22.80;97.30;;;;;;5038224;28;20304;-70
2021/06/03 08:12:07;;;;;;;3.37;3.07;;;22.90;97.60;;;;;;5059565;28;20212;-71
2021/06/03 08:14:33;;;;;;;4.13;3.83;;;23.00;97.30;;;;;;5020365;28;20486;-70
2021/06/03 08:16:59;;;;;;;3.70;3.40;;;23.00;97.40;;;;;;5044813;28;20456;-70
2021/06/03 08:19:24;;;;;;;5.03;3.50;;;23.10;97.40;;;;;;5043565;28;20444;-71
2021/06/03 08:21:50;;;;;;;4.33;3.90;;;23.20;97.80;;;;;;5001117;28;20219;-70
2021/06/03 08:24:16;;;;;;;4.00;3.70;;;23.30;97.90;;;;;;5035215;28;20219;-70
2021/06/03 08:26:41;;;;;;;4.43;4.03;;;23.40;97.70;;;;;;5050118;28;20220;-70
2021/06/03 08:29:07;;;;;;;5.63;3.70;;;23.50;97.90;;;;;;5039507;28;20290;-70
2021/06/03 08:31:33;;;;;;;4.70;3.67;;;23.50;97.70;;;;;;5061563;28;20651;-70
2021/06/03 08:34:03;;;;;;;14.97;4.90;;;23.60;97.70;;;;;;5009752;28;20299;-70
2021/06/03 08:36:29;;;;;;;3.70;3.40;;;23.70;98.00;;;;;;5055854;28;20451;-73
2021/06/03 08:38:55;;;;;;;3.67;3.37;;;23.80;98.00;;;;;;5026508;28;20471;-73
2021/06/03 08:41:21;;;;;;;4.20;3.90;;;24.00;98.00;;;;;;5027932;28;20304;-73
2021/06/03 08:44:23;;;;;;;4.23;3.93;;;24.10;98.00;;;;;;5022569;28;20228;-73
2021/06/03 08:46:49;;;;;;;4.57;4.17;;;24.20;98.00;;;;;;5026670;28;20244;-73
2021/06/03 08:49:14;;;;;;;5.50;4.93;;;24.20;97.80;;;;;;5025214;28;20475;-73
2021/06/03 08:51:40;;;;;;;4.40;4.10;;;24.30;97.70;;;;;;5011053;28;20270;-73
2021/06/03 08:54:06;;;;;;;4.90;4.40;;;24.40;97.70;;;;;;5008886;28;20221;-73
2021/06/03 08:56:32;;;;;;;5.40;4.90;;;24.40;97.90;;;;;;5042262;28;20714;-73
2021/06/03 08:59:00;;;;;;;5.07;4.57;;;24.50;97.70;;;;;;5025595;28;20235;-73
2021/06/03 09:01:28;;;;;;;4.43;4.03;;;24.50;97.60;;;;;;4993229;28;20225;-73
2021/06/03 09:03:54;;;;;;;4.20;3.80;;;24.60;97.70;;;;;;5006893;28;20522;-73
2021/06/03 09:06:20;;;;;;;5.27;4.70;;;24.70;97.70;;;;;;5025130;28;20464;-73
2021/06/03 09:08:58;;;;;;;3.87;3.50;;;24.80;97.70;;;;;;5000573;28;20225;-73
2021/06/03 09:11:28;;;;;;;3.83;3.50;;;24.90;97.70;;;;;;5052371;28;20642;-73
2021/06/03 09:14:02;;;;;;;3.60;3.40;;;25.00;97.80;;;;;;5011600;28;20454;-74
2021/06/03 09:16:31;;;;;;;3.80;3.50;;;25.20;97.90;;;;;;5039819;28;20458;-71
2021/06/03 09:18:58;;;;;;;4.47;4.07;;;25.50;97.50;;;;;;5028448;28;21013;-71
2021/06/03 09:21:47;;;;;;;3.70;3.40;;;25.60;97.10;;;;;;5043427;28;20461;-71
2021/06/03 09:24:15;;;;;;;6.93;3.73;;;25.70;96.80;;;;;;5021027;28;20480;-71
2021/06/03 09:26:53;;;;;;;3.23;3.03;;;25.70;96.80;;;;;;5039691;28;20483;-71
2021/06/03 09:29:23;;;;;;;3.20;3.00;;;25.80;96.60;;;;;;5025057;28;20525;-71
2021/06/03 09:31:50;;;;;;;3.77;3.47;;;26.00;96.60;;;;;;5057798;28;20832;-71
2021/06/03 09:34:17;;;;;;;3.63;3.33;;;26.30;96.30;;;;;;5026390;28;20475;-71
2021/06/03 09:36:46;;;;;;;4.60;4.27;;;26.50;96.20;;;;;;5060988;28;20455;-71
2021/06/03 09:39:20;;;;;;;5.33;3.97;;;26.50;96.10;;;;;;5028774;28;20475;-72
2021/06/03 09:42:02;;;;;;;4.27;3.97;;;26.50;95.90;;;;;;5059617;28;20453;-71
2021/06/03 09:44:52;;;;;;;4.73;4.00;;;26.70;95.60;;;;;;5069468;28;20462;-71
2021/06/03 09:47:20;;;;;;;3.47;3.17;;;26.70;95.60;;;;;;5025766;28;20587;-71
2021/06/03 09:49:56;;;;;;;4.10;3.80;;;26.70;95.50;;;;;;5023287;28;20953;-71
2021/06/03 09:52:27;;;;;;;3.90;3.50;;;26.70;95.60;;;;;;5023712;28;20461;-71
2021/06/03 09:54:56;;;;;;;4.30;4.00;;;26.70;95.30;;;;;;5053192;28;20452;-71
2021/06/03 09:57:34;;;;;;;4.13;3.83;;;26.70;95.20;;;;;;5034120;28;20467;-71
2021/06/03 10:00:12;;;;;;;4.67;4.27;;;27.00;95.10;;;;;;5036948;28;20524;-71
2021/06/03 10:02:38;;;;;;;4.67;4.30;;;27.00;94.90;;;;;;5032370;28;20548;-71
2021/06/03 10:05:30;;;;;;;4.10;3.80;;;27.00;94.80;;;;;;5036642;28;20517;-71
2021/06/03 10:07:58;;;;;;;4.93;4.47;;;26.90;94.70;;;;;;5025539;28;20452;-71
2021/06/03 10:10:27;;;;;;;4.13;3.83;;;26.90;94.80;;;;;;5050829;28;20484;-71
2021/06/03 10:12:54;;;;;;;4.53;4.13;;;26.90;94.80;;;;;;5060021;28;20613;-71
2021/06/03 10:15:25;;;;;;;4.23;3.83;;;27.00;94.80;;;;;;5060165;28;20317;-71
2021/06/03 10:18:02;;;;;;;3.87;3.50;;;27.00;94.70;;;;;;5065679;28;20465;-71
2021/06/03 10:20:34;;;;;;;3.83;3.53;;;27.10;94.80;;;;;;5047585;28;20457;-71
2021/06/03 10:23:00;;;;;;;4.27;3.87;;;27.30;94.80;;;;;;5085285;28;20464;-71
2021/06/03 10:25:31;;;;;;;4.93;4.37;;;27.30;94.80;;;;;;5084292;28;20450;-71
2021/06/03 10:28:02;;;;;;;4.30;3.90;;;27.40;94.70;;;;;;5070247;28;20929;-71
2021/06/03 10:30:34;;;;;;;4.13;3.80;;;27.50;94.70;;;;;;5070975;28;20996;-71
2021/06/03 10:33:10;;;;;;;4.83;4.43;;;27.60;94.70;;;;;;5030576;28;20469;-71
2021/06/03 10:35:37;;;;;;;4.33;4.03;;;27.70;94.40;;;;;;5077603;28;20311;-71
2021/06/03 10:38:05;;;;;;;3.73;3.53;;;27.70;94.30;;;;;;5085105;28;20227;-72
2021/06/03 10:40:33;;;;;;;3.87;3.47;;;27.70;94.00;;;;;;5072033;28;20264;-71
2021/06/03 10:43:00;;;;;;;3.70;3.47;;;27.80;94.00;;;;;;5083055;28;20534;-71
2021/06/03 10:45:27;;;;;;;4.20;3.90;;;27.80;94.00;;;;;;5061823;28;20349;-71
2021/06/03 10:47:55;;;;;;;4.20;3.77;;;28.00;93.90;;;;;;5050592;28;20305;-71
2021/06/03 10:50:28;;;;;;;3.60;3.40;;;28.10;93.60;;;;;;5003645;28;20460;-71
2021/06/03 10:52:54;;;;;;;4.30;4.00;;;28.30;93.30;;;;;;5021481;28;20227;-71
2021/06/03 10:55:24;;;;;;;3.50;3.30;;;28.40;93.40;;;;;;5013870;28;20229;-71
2021/06/03 10:57:57;;;;;;;4.25;4.00;;;28.60;93.10;;;;;;5048494;28;20710;-72
2021/06/03 11:00:41;;;;;;;4.47;4.00;;;28.70;93.60;;;;;;5010385;28;20215;-72
2021/06/03 11:03:15;;;;;;;4.30;4.00;;;28.70;93.70;;;;;;5033092;28;20235;-72
2021/06/03 11:05:47;;;;;;;4.10;3.80;;;28.70;93.60;;;;;;5060915;28;20276;-71
2021/06/03 11:08:31;;;;;;;3.53;3.33;;;28.60;93.30;;;;;;5029197;28;20227;-71
2021/06/03 11:11:09;;;;;;;4.10;3.80;;;28.50;93.30;;;;;;5063479;28;20215;-72
2021/06/03 11:13:47;;;;;;;5.65;4.93;;;28.40;94.50;;;;;;5040390;28;20219;-71
2021/06/03 11:19:25;;;;;;;3.83;3.47;;;28.20;95.40;;;;;;5058065;28;20222;-71
2021/06/03 11:21:57;;;;;;;3.55;3.35;;;28.10;95.20;;;;;;5064377;28;20433;-71
2021/06/03 11:24:30;;;;;;;5.22;3.25;;;28.10;94.90;;;;;;5027747;28;20212;-71
2021/06/03 11:27:00;;;;;;;3.75;3.55;;;28.10;94.70;;;;;;5045946;28;20706;-71
2021/06/03 11:29:41;;;;;;;4.78;4.40;;;28.10;94.50;;;;;;5058919;28;20220;-72
2021/06/03 11:32:06;;;;;;;4.47;4.28;;;28.10;94.20;;;;;;5058440;28;20215;-71
2021/06/03 11:34:38;;;;;;;3.70;3.40;;;28.00;93.90;;;;;;5028321;28;20207;-71
2021/06/03 11:37:11;;;;;;;3.45;3.25;;;28.00;93.70;;;;;;5030050;28;20227;-72
2021/06/03 11:39:40;;;;;;;3.37;3.17;;;28.00;93.60;;;;;;5042044;28;20211;-71
2021/06/03 11:42:34;;;;;;;3.90;3.60;;;27.90;93.70;;;;;;5042607;28;20216;-71
2021/06/03 11:45:03;;;;;;;3.20;3.00;;;27.90;94.00;;;;;;5063870;28;20212;-71
2021/06/03 11:47:56;;;;;;;3.90;3.53;;;28.00;94.20;;;;;;5033132;28;20606;-71
2021/06/03 11:50:21;;;;;;;3.37;3.17;;;28.00;94.50;;;;;;5003030;28;20447;-71
2021/06/03 11:52:56;;;;;;;3.88;3.58;;;28.00;94.70;;;;;;5030817;28;20239;-71
2021/06/03 11:55:40;;;;;;;4.50;4.20;;;28.10;94.50;;;;;;5032109;28;20223;-72
2021/06/03 11:58:23;;;;;;;3.60;3.40;;;28.10;94.30;;;;;;5029780;28;20240;-71
2021/06/03 12:01:05;;;;;;;4.10;3.70;;;28.20;94.10;;;;;;5031311;28;20224;-71
2021/06/03 12:03:36;;;;;;;4.20;3.90;;;28.20;93.90;;;;;;5030328;28;20612;-72
2021/06/03 12:06:23;;;;;;;4.82;4.43;;;28.40;94.20;;;;;;4992378;28;20313;-71
2021/06/03 12:08:55;;;;;;;4.50;4.20;;;28.50;93.60;;;;;;4992700;28;20268;-71
2021/06/03 12:11:33;;;;;;;5.53;5.13;;;28.50;93.70;;;;;;5022948;28;20217;-72
2021/06/03 12:14:14;;;;;;;5.70;5.30;;;28.80;93.40;;;;;;5023406;28;20304;-72
2021/06/03 12:16:49;;;;;;;5.45;5.05;;;29.00;93.20;;;;;;4992305;28;20229;-72
2021/06/03 12:19:18;;;;;;;15.63;5.93;;;29.10;92.80;;;;;;5039952;28;20871;-72
2021/06/03 12:21:47;;;;;;;5.38;5.00;;;29.20;92.80;;;;;;5025139;28;20300;-73
2021/06/03 12:24:13;;;;;;;5.60;5.15;;;29.20;92.90;;;;;;5042452;28;20304;-73
2021/06/03 12:26:41;;;;;;;4.40;4.07;;;29.40;92.80;;;;;;5009387;28;20303;-73
2021/06/03 12:29:21;;;;;;;5.05;4.50;;;29.40;92.60;;;;;;4992875;28;20216;-73
2021/06/03 12:31:50;;;;;;;3.85;3.55;;;29.40;92.70;;;;;;5071134;28;20727;-73
2021/06/03 12:34:22;;;;;;;6.07;5.68;;;29.60;92.00;;;;;;5040592;28;20735;-73
2021/06/03 12:36:47;;;;;;;4.43;4.13;;;29.70;91.20;;;;;;5029545;28;20296;-73
2021/06/03 12:39:13;;;;;;;4.65;4.30;;;29.80;91.10;;;;;;5032276;28;20323;-73
2021/06/03 12:41:42;;;;;;;4.82;4.53;;;29.80;91.50;;;;;;5011862;28;20217;-73
2021/06/03 12:44:17;;;;;;;5.13;4.75;;;30.00;91.00;;;;;;5059362;28;20216;-72
2021/06/03 12:46:47;;;;;;;4.50;4.20;;;30.20;91.10;;;;;;5042734;28;20599;-73
2021/06/03 12:49:26;;;;;;;5.05;4.75;;;30.20;91.10;;;;;;5062382;28;20594;-73
2021/06/03 12:51:58;;;;;;;4.40;4.10;;;30.20;91.60;;;;;;5062831;28;20231;-73
2021/06/03 12:54:39;;;;;;;5.15;4.68;;;30.30;91.90;;;;;;5051719;28;20235;-73
2021/06/03 12:57:13;;;;;;;5.20;4.80;;;30.30;91.30;;;;;;5041290;28;20224;-72
2021/06/03 12:59:41;;;;;;;5.30;4.90;;;30.50;91.30;;;;;;5041878;28;20370;-73
2021/06/03 13:02:10;;;;;;;5.30;5.00;;;30.60;90.90;;;;;;5042696;28;20244;-73